createdAt,value
2019-05-06T00:02:01.633Z,10.20
2019-05-06T00:04:47.737Z,12.30
2019-05-06T00:07:34.085Z,11.37
2019-05-06T00:10:28.111Z,8.30
2019-05-06T00:13:14.667Z,7.30
2019-05-06T00:16:03.787Z,6.73
2019-05-06T00:18:49.333Z,12.80
2019-05-06T00:21:35.773Z,12.43
2019-05-06T00:24:30.433Z,11.03
2019-05-06T00:27:21.413Z,12.17
2019-05-06T00:30:08.176Z,14.27
2019-05-06T00:32:54.232Z,12.13
2019-05-06T00:35:45.027Z,10.27
2019-05-06T00:38:31.076Z,11.50
2019-05-06T00:41:24.571Z,8.47
2019-05-06T00:44:10.327Z,12.30
2019-05-06T00:46:56.542Z,8.23
2019-05-06T00:49:43.584Z,12.20
2019-05-06T00:52:29.832Z,9.53
2019-05-06T00:55:15.878Z,8.77
2019-05-06T00:58:04.109Z,14.87
2019-05-06T01:00:50.032Z,13.53
2019-05-06T01:03:36.159Z,8.53
2019-05-06T01:06:22.211Z,9.73
2019-05-06T01:09:13.995Z,10.13
2019-05-06T01:11:59.857Z,9.67
2019-05-06T01:14:48.520Z,11.53
2019-05-06T01:17:34.282Z,10.37
2019-05-06T01:20:20.413Z,8.73
2019-05-06T01:23:06.623Z,10.00
2019-05-06T01:25:54.512Z,15.87
2019-05-06T01:28:40.857Z,10.63
2019-05-06T01:31:39.908Z,9.03
2019-05-06T01:34:15.193Z,12.07
2019-05-06T01:37:01.262Z,11.23
2019-05-06T01:40:04.178Z,14.10
2019-05-06T01:42:55.427Z,10.87
2019-05-06T01:45:41.342Z,10.57
2019-05-06T01:48:45.972Z,15.47
2019-05-06T01:51:34.573Z,17.10
2019-05-06T01:54:20.790Z,14.67
2019-05-06T01:57:06.817Z,12.83
2019-05-06T01:59:53.899Z,18.83
2019-05-06T02:02:40.812Z,14.57
2019-05-06T02:05:26.803Z,16.13
2019-05-06T02:08:13.577Z,12.67
2019-05-06T02:10:59.913Z,13.80
2019-05-06T02:13:45.848Z,16.27
2019-05-06T02:16:34.121Z,14.13
2019-05-06T02:19:20.275Z,13.10
2019-05-06T02:22:18.175Z,15.00
2019-05-06T02:25:13.721Z,13.33
2019-05-06T02:27:59.300Z,16.03
2019-05-06T02:31:05.441Z,12.77
2019-05-06T02:34:12.132Z,17.60
2019-05-06T02:37:05.962Z,14.13
2019-05-06T02:39:53.127Z,14.73
2019-05-06T02:42:38.347Z,12.40
2019-05-06T02:45:24.689Z,7.63
2019-05-06T02:48:22.888Z,12.93
2019-05-06T02:51:14.079Z,17.70
2019-05-06T02:54:03.075Z,12.23
2019-05-06T02:56:48.651Z,12.70
2019-05-06T02:59:34.764Z,11.20
2019-05-06T03:02:37.907Z,15.87
2019-05-06T03:05:09.271Z,11.63
2019-05-06T03:07:57.694Z,11.17
2019-05-06T03:10:44.451Z,12.47
2019-05-06T03:13:33.672Z,10.07
2019-05-06T03:16:18.844Z,9.17
2019-05-06T03:19:05.111Z,16.13
2019-05-06T03:22:13.377Z,12.13
2019-05-06T03:25:06.984Z,13.13
2019-05-06T03:27:53.309Z,11.43
2019-05-06T03:30:39.602Z,10.03
2019-05-06T03:33:47.201Z,11.23
2019-05-06T03:36:24.153Z,10.17
2019-05-06T03:39:03.108Z,11.03
2019-05-06T03:41:49.291Z,11.53
2019-05-06T03:44:37.415Z,15.03
2019-05-06T03:47:36.147Z,13.20
2019-05-06T03:50:24.086Z,10.17
2019-05-06T03:53:13.807Z,14.43
2019-05-06T03:55:59.586Z,13.93
2019-05-06T03:58:47.297Z,13.83
2019-05-06T04:01:33.762Z,12.50
2019-05-06T04:04:20.080Z,15.67
2019-05-06T04:07:06.165Z,11.83
2019-05-06T04:09:53.633Z,13.40
2019-05-06T04:12:43.331Z,12.67
2019-05-06T04:15:34.633Z,11.10
2019-05-06T04:18:23.843Z,11.13
2019-05-06T04:21:16.702Z,11.10
2019-05-06T04:24:08.917Z,11.60
2019-05-06T04:27:16.374Z,13.30
2019-05-06T04:30:04.626Z,9.80
2019-05-06T04:32:53.165Z,14.03
2019-05-06T04:35:39.526Z,16.03
2019-05-06T04:38:26.148Z,10.37
2019-05-06T04:41:13.709Z,13.10
2019-05-06T04:44:02.759Z,14.47
2019-05-06T04:46:48.147Z,15.27
2019-05-06T04:49:34.516Z,11.93
2019-05-06T04:52:22.901Z,12.40
2019-05-06T04:55:09.102Z,12.50
2019-05-06T04:57:55.224Z,16.07
2019-05-06T05:00:44.107Z,11.70
2019-05-06T05:03:29.495Z,11.73
2019-05-06T05:06:15.766Z,9.90
2019-05-06T05:09:02.866Z,12.00
2019-05-06T05:11:56.249Z,12.10
2019-05-06T05:14:53.083Z,10.57
2019-05-06T05:17:46.410Z,9.17
2019-05-06T05:20:37.760Z,10.60
2019-05-06T05:23:22.884Z,12.93
2019-05-06T05:26:09.353Z,14.00
2019-05-06T05:28:55.625Z,8.27
2019-05-06T05:31:43.579Z,11.33
2019-05-06T05:34:37.991Z,10.77
2019-05-06T05:37:18.740Z,9.83
2019-05-06T05:40:04.995Z,9.20
2019-05-06T05:42:58.237Z,10.33
2019-05-06T05:45:44.515Z,8.50
2019-05-06T05:48:52.880Z,11.57
2019-05-06T05:51:39.202Z,9.97
2019-05-06T05:54:25.409Z,11.47
2019-05-06T05:57:11.958Z,10.37
2019-05-06T05:59:58.375Z,11.53
2019-05-06T06:02:44.557Z,15.60
2019-05-06T06:05:33.005Z,13.33
2019-05-06T06:08:22.048Z,14.77
2019-05-06T06:11:27.215Z,11.30
2019-05-06T06:14:33.242Z,12.70
2019-05-06T06:17:44.895Z,11.03
2019-05-06T06:20:52.798Z,13.37
2019-05-06T06:23:42.008Z,11.67
2019-05-06T06:26:28.374Z,12.13
2019-05-06T06:29:14.914Z,9.57
2019-05-06T06:32:18.774Z,7.97
2019-05-06T06:35:22.860Z,7.90
2019-05-06T06:38:23.842Z,9.77
2019-05-06T06:41:12.102Z,13.13
2019-05-06T06:44:03.098Z,15.23
2019-05-06T06:46:49.494Z,9.93
2019-05-06T06:49:35.774Z,8.70
2019-05-06T06:52:23.128Z,8.53
2019-05-06T06:55:09.734Z,8.20
2019-05-06T06:58:12.974Z,11.20
2019-05-06T07:01:28.554Z,9.97
2019-05-06T07:04:23.114Z,9.17
2019-05-06T07:07:09.334Z,9.63
2019-05-06T07:09:56.077Z,10.10
2019-05-06T07:12:42.699Z,7.77
2019-05-06T07:15:29.295Z,10.93
2019-05-06T07:18:15.641Z,6.93
2019-05-06T07:21:14.322Z,6.17
2019-05-06T07:24:02.182Z,6.13
2019-05-06T07:26:53.274Z,6.83
2019-05-06T07:29:39.915Z,7.57
2019-05-06T07:32:26.694Z,9.63
2019-05-06T07:35:13.083Z,7.17
2019-05-06T07:37:59.616Z,6.73
2019-05-06T07:40:48.975Z,8.07
2019-05-06T07:43:45.495Z,8.80
2019-05-06T07:46:42.711Z,6.80
2019-05-06T07:49:29.117Z,7.70
2019-05-06T07:52:17.391Z,9.60
2019-05-06T07:55:03.878Z,7.73
2019-05-06T07:57:52.447Z,8.57
2019-05-06T08:00:38.254Z,6.67
2019-05-06T08:03:24.534Z,6.30
2019-05-06T08:06:13.166Z,8.50
2019-05-06T08:08:59.978Z,8.73
2019-05-06T08:11:46.594Z,9.57
2019-05-06T08:14:43.140Z,15.50
2019-05-06T08:17:33.794Z,7.00
2019-05-06T08:20:22.215Z,7.60
2019-05-06T08:23:29.294Z,8.50
2019-05-06T08:26:17.757Z,10.10
2019-05-06T08:29:04.276Z,6.83
2019-05-06T08:31:52.375Z,6.87
2019-05-06T08:34:39.094Z,9.63
2019-05-06T08:37:32.534Z,6.83
2019-05-06T08:40:19.594Z,7.63
2019-05-06T08:43:05.935Z,6.40
2019-05-06T08:45:52.963Z,11.03
2019-05-06T08:48:39.586Z,9.03
2019-05-06T08:51:47.875Z,8.23
2019-05-06T08:54:38.634Z,9.13
2019-05-06T08:57:24.824Z,8.00
2019-05-06T09:00:12.771Z,7.53
2019-05-06T09:02:59.174Z,6.00
2019-05-06T09:05:53.033Z,9.00
2019-05-06T09:08:39.954Z,6.40
2019-05-06T09:11:27.095Z,8.20
2019-05-06T09:14:13.933Z,11.70
2019-05-06T09:17:02.834Z,6.33
2019-05-06T09:19:49.022Z,5.27
2019-05-06T09:22:35.574Z,5.67
2019-05-06T09:25:23.125Z,5.53
2019-05-06T09:28:33.891Z,8.93
2019-05-06T09:31:34.494Z,6.87
2019-05-06T09:34:42.875Z,8.13
2019-05-06T09:37:28.396Z,8.97
2019-05-06T09:40:14.854Z,6.20
2019-05-06T09:43:04.719Z,6.00
2019-05-06T09:45:49.517Z,4.93
2019-05-06T09:48:55.199Z,5.83
2019-05-06T09:51:42.490Z,10.17
2019-05-06T09:54:42.914Z,6.63
2019-05-06T09:57:32.728Z,8.00
2019-05-06T10:00:19.755Z,4.20
2019-05-06T10:03:06.906Z,4.70
2019-05-06T10:05:53.229Z,6.13
2019-05-06T10:08:39.841Z,6.57
2019-05-06T10:11:26.635Z,6.70
2019-05-06T10:14:13.258Z,5.17
2019-05-06T10:16:59.955Z,5.40
2019-05-06T10:19:46.794Z,5.53
2019-05-06T10:22:33.155Z,5.50
2019-05-06T10:25:19.476Z,7.30
2019-05-06T10:28:12.585Z,6.47
2019-05-06T10:30:59.334Z,6.27
2019-05-06T10:34:03.721Z,6.67
2019-05-06T10:37:15.459Z,3.97
2019-05-06T10:40:08.406Z,5.93
2019-05-06T10:43:06.216Z,7.10
2019-05-06T10:45:52.614Z,8.63
2019-05-06T10:48:39.234Z,5.13
2019-05-06T10:51:32.366Z,7.00
2019-05-06T10:54:18.797Z,5.10
2019-05-06T10:57:22.086Z,4.27
2019-05-06T11:00:09.060Z,5.70
2019-05-06T11:03:16.096Z,5.87
2019-05-06T11:06:13.253Z,4.00
2019-05-06T11:09:03.241Z,4.23
2019-05-06T11:11:49.395Z,4.13
2019-05-06T11:14:36.054Z,6.20
2019-05-06T11:17:24.474Z,8.87
2019-05-06T11:20:15.235Z,6.17
2019-05-06T11:23:02.208Z,6.97
2019-05-06T11:25:48.635Z,5.43
2019-05-06T11:28:44.878Z,6.00
2019-05-06T11:31:54.244Z,7.17
2019-05-06T11:35:03.706Z,5.50
2019-05-06T11:38:02.820Z,4.60
2019-05-06T11:40:49.474Z,6.53
2019-05-06T11:43:36.794Z,6.03
2019-05-06T11:46:23.305Z,6.70
2019-05-06T11:49:12.290Z,6.17
2019-05-06T11:51:58.493Z,5.90
2019-05-06T11:54:44.774Z,6.17
2019-05-06T11:57:32.612Z,4.97
2019-05-06T12:00:23.896Z,4.50
2019-05-06T12:03:10.214Z,3.97
2019-05-06T12:05:57.317Z,6.23
2019-05-06T12:08:43.534Z,5.53
2019-05-06T12:11:29.875Z,4.47
2019-05-06T12:14:16.375Z,3.60
2019-05-06T12:17:02.617Z,7.03
2019-05-06T12:19:49.322Z,5.93
2019-05-06T12:22:36.534Z,6.03
2019-05-06T12:25:23.765Z,6.77
2019-05-06T12:28:12.392Z,5.40
2019-05-06T12:30:58.738Z,4.10
2019-05-06T12:33:49.654Z,6.47
2019-05-06T12:36:36.755Z,7.20
2019-05-06T12:39:33.050Z,4.57
2019-05-06T12:42:43.149Z,5.13
2019-05-06T12:45:35.876Z,5.80
2019-05-06T12:48:27.467Z,6.10
2019-05-06T12:51:13.802Z,5.97
2019-05-06T12:54:00.496Z,6.70
2019-05-06T12:56:48.354Z,4.90
2019-05-06T12:59:34.813Z,6.80
2019-05-06T13:02:23.774Z,5.47
2019-05-06T13:05:12.488Z,4.77
2019-05-06T13:07:58.675Z,6.27
2019-05-06T13:10:45.162Z,4.63
2019-05-06T13:13:33.158Z,4.23
2019-05-06T13:16:19.694Z,4.13
2019-05-06T13:19:06.194Z,4.17
2019-05-06T13:21:53.394Z,3.90
2019-05-06T13:24:39.334Z,4.40
2019-05-06T13:27:27.423Z,3.93
2019-05-06T13:30:14.755Z,5.10
2019-05-06T13:33:07.989Z,3.27
2019-05-06T13:35:54.295Z,4.27
2019-05-06T13:38:42.644Z,4.47
2019-05-06T13:41:28.834Z,4.13
2019-05-06T13:44:16.354Z,5.20
2019-05-06T13:47:03.836Z,5.97
2019-05-06T13:49:56.638Z,4.83
2019-05-06T13:52:43.630Z,6.37
2019-05-06T13:55:30.177Z,6.20
2019-05-06T13:58:16.255Z,5.57
2019-05-06T14:01:04.717Z,5.17
2019-05-06T14:03:52.431Z,5.47
2019-05-06T14:06:38.655Z,5.67
2019-05-06T14:09:32.540Z,8.20
2019-05-06T14:12:13.160Z,7.93
2019-05-06T14:14:59.674Z,6.13
2019-05-06T14:17:46.336Z,5.50
2019-05-06T14:20:33.556Z,7.40
2019-05-06T14:23:22.414Z,6.17
2019-05-06T14:26:24.154Z,10.33
2019-05-06T14:29:38.886Z,5.90
2019-05-06T14:32:25.518Z,7.77
2019-05-06T14:35:12.220Z,6.67
2019-05-06T14:37:58.714Z,7.43
2019-05-06T14:41:08.072Z,7.60
2019-05-06T14:43:54.571Z,10.27
2019-05-06T14:46:58.854Z,7.47
2019-05-06T14:49:45.274Z,7.70
2019-05-06T14:52:33.329Z,7.60
2019-05-06T14:55:24.615Z,9.40
2019-05-06T14:58:12.080Z,8.87
2019-05-06T15:01:03.264Z,9.83
2019-05-06T15:03:47.969Z,8.80
2019-05-06T15:06:34.458Z,8.50
2019-05-06T15:09:22.614Z,8.93
2019-05-06T15:12:09.154Z,8.27
2019-05-06T15:14:55.509Z,10.07
2019-05-06T15:17:43.096Z,10.37
2019-05-06T15:20:34.145Z,10.47
2019-05-06T15:23:22.311Z,12.00
2019-05-06T15:26:08.134Z,11.87
2019-05-06T15:28:54.334Z,11.43
2019-05-06T15:31:54.335Z,10.33
2019-05-06T15:34:48.556Z,10.80
2019-05-06T15:37:53.352Z,14.47
2019-05-06T15:40:44.140Z,13.60
2019-05-06T15:43:30.034Z,13.03
2019-05-06T15:46:19.033Z,16.43
2019-05-06T15:49:04.954Z,16.07
2019-05-06T15:51:52.348Z,17.20
2019-05-06T15:54:43.038Z,20.37
2019-05-06T15:57:32.733Z,17.93
2019-05-06T16:00:22.592Z,19.00
2019-05-06T16:03:08.645Z,19.33
2019-05-06T16:06:44.790Z,19.73
2019-05-06T16:10:07.599Z,17.80
2019-05-06T16:12:53.880Z,20.00
2019-05-06T16:15:42.222Z,20.30
2019-05-06T16:18:27.954Z,21.33
2019-05-06T16:21:13.975Z,19.53
2019-05-06T16:24:22.334Z,19.63
2019-05-06T16:27:08.495Z,20.53
2019-05-06T16:29:54.962Z,21.47
2019-05-06T16:32:41.960Z,18.50
2019-05-06T16:35:28.354Z,19.27
2019-05-06T16:38:14.415Z,20.17
2019-05-06T16:41:10.277Z,22.47
2019-05-06T16:43:48.954Z,17.10
2019-05-06T16:46:35.196Z,15.17
2019-05-06T16:49:24.134Z,14.57
2019-05-06T16:52:10.494Z,14.20
2019-05-06T16:54:56.674Z,17.30
2019-05-06T16:57:47.977Z,18.63
2019-05-06T17:00:36.055Z,19.83
2019-05-06T17:03:33.314Z,20.60
2019-05-06T17:06:27.697Z,18.10
2019-05-06T17:09:21.170Z,13.23
2019-05-06T17:12:05.314Z,12.33
2019-05-06T17:14:52.789Z,15.57
2019-05-06T17:17:46.732Z,15.53
2019-05-06T17:20:32.574Z,15.30
2019-05-06T17:23:18.894Z,17.37
2019-05-06T17:26:09.146Z,17.30
2019-05-06T17:29:32.256Z,19.43
2019-05-06T17:32:33.259Z,19.07
2019-05-06T17:35:23.444Z,17.27
2019-05-06T17:38:16.052Z,19.77
2019-05-06T17:41:04.274Z,16.47
2019-05-06T17:43:52.313Z,18.17
2019-05-06T17:46:47.372Z,18.10
2019-05-06T17:49:36.169Z,20.97
2019-05-06T17:52:25.535Z,20.23
2019-05-06T17:55:15.034Z,19.53
2019-05-06T17:58:02.690Z,22.77
2019-05-06T18:00:52.224Z,21.90
2019-05-06T18:03:39.934Z,20.67
2019-05-06T18:06:26.315Z,20.10
2019-05-06T18:09:14.237Z,20.73
2019-05-06T18:12:03.817Z,21.63
2019-05-06T18:14:53.170Z,21.40
2019-05-06T18:17:39.155Z,21.13
2019-05-06T18:20:27.141Z,24.03
2019-05-06T18:23:15.214Z,20.33
2019-05-06T18:26:03.896Z,21.00
2019-05-06T18:28:58.793Z,23.10
2019-05-06T18:31:42.979Z,21.83
2019-05-06T18:34:29.675Z,20.73
2019-05-06T18:37:17.812Z,22.00
2019-05-06T18:40:07.494Z,22.73
2019-05-06T18:42:56.054Z,22.13
2019-05-06T18:45:47.475Z,25.10
2019-05-06T18:48:35.256Z,21.77
2019-05-06T18:51:22.518Z,22.03
2019-05-06T18:54:12.436Z,23.90
2019-05-06T18:56:58.654Z,23.57
2019-05-06T18:59:45.534Z,21.90
2019-05-06T19:02:32.234Z,23.63
2019-05-06T19:05:28.655Z,20.83
2019-05-06T19:08:38.275Z,24.63
2019-05-06T19:11:28.408Z,22.70
2019-05-06T19:14:17.275Z,25.83
2019-05-06T19:17:05.355Z,24.63
2019-05-06T19:19:52.994Z,23.13
2019-05-06T19:22:39.876Z,21.00
2019-05-06T19:25:33.714Z,23.47
2019-05-06T19:28:16.854Z,21.93
2019-05-06T19:31:06.334Z,22.77
2019-05-06T19:33:52.854Z,22.33
2019-05-06T19:36:42.231Z,23.10
2019-05-06T19:39:26.955Z,21.67
2019-05-06T19:42:13.602Z,26.33
2019-05-06T19:45:02.528Z,24.57
2019-05-06T19:47:52.265Z,25.53
2019-05-06T19:50:42.480Z,28.33
2019-05-06T19:53:32.141Z,24.53
2019-05-06T19:56:18.654Z,24.40
2019-05-06T19:59:06.336Z,24.50
2019-05-06T20:01:52.935Z,24.60
2019-05-06T20:04:44.058Z,24.63
2019-05-06T20:07:57.207Z,24.27
2019-05-06T20:10:55.845Z,24.53
2019-05-06T20:13:41.256Z,26.40
2019-05-06T20:16:27.372Z,22.57
2019-05-06T20:19:27.630Z,25.83
2019-05-06T20:22:02.099Z,27.30
2019-05-06T20:24:48.323Z,25.30
2019-05-06T20:27:34.586Z,24.10
2019-05-06T20:30:21.930Z,24.60
2019-05-06T20:33:07.884Z,22.87
2019-05-06T20:35:53.951Z,25.43
2019-05-06T20:38:42.215Z,24.80
2019-05-06T20:41:32.754Z,25.33
2019-05-06T20:44:18.551Z,27.70
2019-05-06T20:47:04.802Z,25.90
2019-05-06T20:49:53.086Z,23.63
2019-05-06T20:52:42.444Z,22.37
2019-05-06T20:55:32.253Z,21.50
2019-05-06T20:58:20.072Z,20.57
2019-05-06T21:01:06.516Z,21.07
2019-05-06T21:03:52.926Z,20.93
2019-05-06T21:06:39.111Z,18.77
2019-05-06T21:09:25.386Z,23.97
2019-05-06T21:12:11.497Z,20.53
2019-05-06T21:14:57.656Z,22.07
2019-05-06T21:17:43.926Z,24.43
2019-05-06T21:20:29.844Z,20.87
2019-05-06T21:23:16.045Z,15.83
2019-05-06T21:26:03.263Z,16.93
2019-05-06T21:28:49.726Z,18.53
2019-05-06T21:31:36.104Z,17.80
2019-05-06T21:34:22.383Z,18.37
2019-05-06T21:37:08.779Z,15.90
2019-05-06T21:39:55.126Z,19.63
2019-05-06T21:42:43.359Z,16.67
2019-05-06T21:45:29.596Z,18.47
2019-05-06T21:48:16.047Z,17.67
2019-05-06T21:51:02.076Z,17.77
2019-05-06T21:53:48.246Z,17.90
2019-05-06T21:56:34.622Z,17.60
2019-05-06T21:59:20.751Z,18.53
2019-05-06T22:02:09.277Z,17.50
2019-05-06T22:04:55.592Z,16.53
2019-05-06T22:07:43.398Z,17.23
2019-05-06T22:10:29.891Z,15.97
2019-05-06T22:13:16.096Z,15.17
2019-05-06T22:16:04.723Z,15.90
2019-05-06T22:18:53.088Z,17.97
2019-05-06T22:21:46.656Z,18.67
2019-05-06T22:24:42.794Z,18.27
2019-05-06T22:27:29.323Z,18.77
2019-05-06T22:30:15.244Z,19.90
2019-05-06T22:33:03.429Z,19.47
2019-05-06T22:35:49.672Z,21.70
2019-05-06T22:38:35.876Z,19.97
2019-05-06T22:41:24.832Z,17.60
2019-05-06T22:44:14.327Z,19.90
2019-05-06T22:46:58.387Z,20.33
2019-05-06T22:49:44.531Z,19.53
2019-05-06T22:52:32.496Z,20.17
2019-05-06T22:55:18.835Z,19.33
2019-05-06T22:58:05.066Z,21.23
2019-05-06T23:00:53.744Z,25.33
2019-05-06T23:03:39.821Z,18.83
2019-05-06T23:06:25.841Z,21.17
2019-05-06T23:09:12.211Z,20.67
2019-05-06T23:11:58.286Z,20.10
2019-05-06T23:14:44.536Z,21.43
2019-05-06T23:17:34.226Z,21.70
2019-05-06T23:20:18.821Z,22.47
2019-05-06T23:23:05.078Z,23.03
2019-05-06T23:26:09.737Z,23.33
2019-05-06T23:28:56.065Z,24.30
2019-05-06T23:31:42.571Z,22.87
2019-05-06T23:34:29.071Z,20.83
2019-05-06T23:37:18.841Z,25.80
2019-05-06T23:40:42.744Z,23.97
2019-05-06T23:44:05.846Z,26.10
2019-05-06T23:47:28.348Z,22.07
2019-05-06T23:50:51.206Z,25.57
2019-05-06T23:54:14.156Z,25.30
2019-05-06T23:56:59.221Z,22.43
2019-05-06T23:59:45.996Z,23.93
